createdAt,value
2019-05-12T14:10:54.219Z,101516.33
2019-05-12T14:13:33.653Z,101513.16
2019-05-12T14:16:07.067Z,101523.32
2019-05-12T14:18:40.690Z,101528.87
2019-05-12T14:21:14.538Z,101533.70
2019-05-12T14:23:48.861Z,101523.84
2019-05-12T14:26:24.272Z,101527.56
2019-05-12T14:28:57.110Z,101516.76
2019-05-12T14:31:35.464Z,101521.86
2019-05-12T14:34:10.457Z,101518.47
2019-05-12T14:36:40.595Z,101522.30
2019-05-12T14:39:14.099Z,101513.56
2019-05-12T14:41:53.030Z,101514.18
2019-05-12T14:44:23.784Z,101519.16
2019-05-12T14:46:57.256Z,101518.17
2019-05-12T14:49:33.229Z,101523.70
2019-05-12T14:52:06.926Z,101524.93
2019-05-12T14:54:40.308Z,101540.98
2019-05-12T14:57:14.432Z,101543.58
2019-05-12T14:59:47.723Z,101546.42
2019-05-12T15:02:25.486Z,101548.48
2019-05-12T15:05:00.115Z,101547.17
2019-05-12T15:07:31.760Z,101543.50
2019-05-12T15:10:08.526Z,101548.50
2019-05-12T15:12:41.104Z,101549.55
2019-05-12T15:15:20.243Z,101557.64
2019-05-12T15:17:55.054Z,101552.93
2019-05-12T15:20:25.557Z,101557.30
2019-05-12T15:22:58.611Z,101560.09
2019-05-12T15:25:35.447Z,101554.44
2019-05-12T15:28:06.863Z,101548.87
2019-05-12T15:30:40.392Z,101551.03
2019-05-12T15:33:14.080Z,101547.91
2019-05-12T15:35:49.937Z,101546.84
2019-05-12T15:38:24.108Z,101550.83
2019-05-12T15:40:57.300Z,101539.42
2019-05-12T15:43:35.819Z,101548.52
2019-05-12T15:46:08.588Z,101551.91
2019-05-12T15:48:44.504Z,101558.07
2019-05-12T15:51:18.860Z,101554.95
2019-05-12T15:53:57.246Z,101562.34
2019-05-12T15:56:26.507Z,101558.67
2019-05-12T15:59:00.827Z,101563.23
2019-05-12T16:01:34.876Z,101565.45
2019-05-12T16:04:11.748Z,101570.17
2019-05-12T16:06:52.893Z,101565.17
2019-05-12T16:09:18.979Z,101566.63
2019-05-12T16:11:51.903Z,101566.77
2019-05-12T16:14:30.476Z,101569.81
2019-05-12T16:17:06.251Z,101568.80
2019-05-12T16:19:36.725Z,101569.00
2019-05-12T16:22:09.769Z,101569.23
2019-05-12T16:24:43.283Z,101560.06
2019-05-12T16:27:18.248Z,101570.79
2019-05-12T16:29:53.491Z,101572.98
2019-05-12T16:32:32.787Z,101570.27
2019-05-12T16:35:07.316Z,101569.16
2019-05-12T16:37:39.170Z,101576.22
2019-05-12T16:40:13.708Z,101585.63
2019-05-12T16:42:52.694Z,101583.59
2019-05-12T16:45:23.482Z,101584.42
2019-05-12T16:48:07.717Z,101584.61
2019-05-12T16:50:37.276Z,101587.07
2019-05-12T16:53:13.272Z,101582.33
2019-05-12T16:55:49.780Z,101579.28
2019-05-12T16:58:24.236Z,101585.73
2019-05-12T17:00:56.013Z,101581.69
2019-05-12T17:03:29.598Z,101587.20
2019-05-12T17:06:03.492Z,101586.63
2019-05-12T17:08:37.079Z,101595.20
2019-05-12T17:11:24.300Z,101599.23
2019-05-12T17:13:55.583Z,101600.34
2019-05-12T17:16:21.713Z,101599.54
2019-05-12T17:18:54.781Z,101603.89
2019-05-12T17:21:28.814Z,101609.23
2019-05-12T17:24:04.021Z,101612.31
2019-05-12T17:26:37.668Z,101603.19
2019-05-12T17:29:10.891Z,101613.23
2019-05-12T17:31:44.573Z,101610.02
2019-05-12T17:34:18.366Z,101622.34
2019-05-12T17:36:56.156Z,101620.81
2019-05-12T17:39:35.799Z,101623.55
2019-05-12T17:42:04.874Z,101623.64
2019-05-12T17:44:54.475Z,101634.30
2019-05-12T17:50:40.410Z,101627.48
2019-05-12T17:53:17.777Z,101637.45
2019-05-12T17:55:55.771Z,101635.24
2019-05-12T17:58:36.463Z,101645.62
2019-05-12T18:01:14.302Z,101653.86
2019-05-12T18:03:56.654Z,101654.02
2019-05-12T18:06:36.629Z,101656.50
2019-05-12T18:09:30.546Z,101657.60
2019-05-12T18:12:13.639Z,101673.73
2019-05-12T18:14:52.124Z,101682.17
2019-05-12T18:17:33.857Z,101683.48
2019-05-12T18:20:16.477Z,101685.06
2019-05-12T18:22:58.799Z,101683.97
2019-05-12T18:25:40.963Z,101697.45
2019-05-12T18:28:46.899Z,101692.87
2019-05-12T18:31:30.355Z,101700.05
2019-05-12T18:34:10.601Z,101703.03
2019-05-12T18:36:59.522Z,101709.23
2019-05-12T18:39:44.925Z,101708.92
2019-05-12T18:42:25.361Z,101712.45
2019-05-12T18:45:11.843Z,101725.56
2019-05-12T18:47:38.658Z,101723.08
2019-05-12T18:50:14.121Z,101727.14
2019-05-12T18:52:47.214Z,101726.17
2019-05-12T18:55:20.506Z,101723.19
2019-05-12T18:57:54.621Z,101731.02
2019-05-12T19:00:27.911Z,101731.18
2019-05-12T19:03:07.990Z,101732.86
2019-05-12T19:05:36.859Z,101732.08
2019-05-12T19:08:09.921Z,101737.77
2019-05-12T19:10:47.326Z,101738.92
2019-05-12T19:13:19.709Z,101741.05
2019-05-12T19:16:02.334Z,101734.77
2019-05-12T19:18:32.370Z,101746.98
2019-05-12T19:21:10.164Z,101749.20
2019-05-12T19:23:40.351Z,101755.27
2019-05-12T19:26:13.731Z,101753.79
2019-05-12T19:28:52.732Z,101753.11
2019-05-12T19:31:21.465Z,101763.90
2019-05-12T19:34:14.864Z,101766.41
2019-05-12T19:36:30.022Z,101766.26
2019-05-12T19:39:05.882Z,101769.23
2019-05-12T19:41:38.751Z,101779.14
2019-05-12T19:44:13.505Z,101784.36
2019-05-12T19:46:49.490Z,101788.08
2019-05-12T19:49:25.929Z,101785.75
2019-05-12T19:51:58.482Z,101796.94
2019-05-12T19:54:36.124Z,101801.80
2019-05-12T19:57:05.963Z,101804.75
2019-05-12T19:59:43.992Z,101803.19
2019-05-12T20:02:15.332Z,101817.19
2019-05-12T20:04:51.926Z,101813.48
2019-05-12T20:07:25.365Z,101810.11
2019-05-12T20:10:00.566Z,101816.33
2019-05-12T20:12:34.269Z,101821.41
2019-05-12T20:15:09.401Z,101813.45
2019-05-12T20:17:44.669Z,101818.66
2019-05-12T20:20:18.145Z,101822.73
2019-05-12T20:22:51.372Z,101827.66
2019-05-12T20:25:25.442Z,101823.50
2019-05-12T20:28:05.600Z,101822.14
2019-05-12T20:30:33.971Z,101818.48
2019-05-12T20:33:08.210Z,101829.77
2019-05-12T20:35:45.148Z,101832.12
2019-05-12T20:38:16.930Z,101833.03
2019-05-12T20:40:50.445Z,101832.25
2019-05-12T20:43:32.047Z,101837.31
2019-05-12T20:45:59.140Z,101838.77
2019-05-12T20:48:33.908Z,101843.12
2019-05-12T20:51:08.696Z,101846.44
2019-05-12T20:53:43.750Z,101849.19
2019-05-12T20:56:21.668Z,101857.03
2019-05-12T20:58:53.209Z,101866.03
2019-05-12T21:01:30.103Z,101859.26
2019-05-12T21:04:03.640Z,101865.62
2019-05-12T21:06:41.705Z,101863.09
2019-05-12T21:09:14.351Z,101868.56
2019-05-12T21:11:47.387Z,101876.30
2019-05-12T21:14:23.882Z,101878.39
2019-05-12T21:16:56.480Z,101884.11
2019-05-12T21:19:35.674Z,101877.47
2019-05-12T21:22:04.753Z,101884.34
2019-05-12T21:24:39.482Z,101885.16
2019-05-12T21:27:15.841Z,101885.23
2019-05-12T21:29:49.074Z,101889.12
2019-05-12T21:32:24.212Z,101885.77
2019-05-12T21:34:59.622Z,101887.24
2019-05-12T21:37:37.107Z,101892.95
2019-05-12T21:40:08.590Z,101896.41
2019-05-12T21:42:44.847Z,101891.94
2019-05-12T21:45:26.628Z,101900.97
2019-05-12T21:47:57.659Z,101899.17
2019-05-12T21:50:36.230Z,101905.63
2019-05-12T21:53:10.183Z,101909.09
2019-05-12T21:55:44.361Z,101908.94
2019-05-12T21:58:18.006Z,101914.34
2019-05-12T22:01:04.123Z,101922.17
2019-05-12T22:03:35.997Z,101924.95
2019-05-12T22:06:19.120Z,101926.05
2019-05-12T22:08:44.359Z,101919.36
2019-05-12T22:11:17.586Z,101919.92
2019-05-12T22:13:56.024Z,101916.16
2019-05-12T22:16:29.780Z,101917.28
2019-05-12T22:19:03.596Z,101915.94
2019-05-12T22:21:46.884Z,101919.34
2019-05-12T22:24:14.602Z,101921.25
2019-05-12T22:26:47.941Z,101924.73
2019-05-12T22:29:21.370Z,101927.64
2019-05-12T22:31:55.782Z,101928.20
2019-05-12T22:34:37.043Z,101929.77
2019-05-12T22:37:04.653Z,101932.25
2019-05-12T22:39:37.738Z,101942.28
2019-05-12T22:42:11.512Z,101943.79
2019-05-12T22:44:55.342Z,101939.77
2019-05-12T22:47:24.161Z,101944.69
2019-05-12T22:49:57.256Z,101953.64
2019-05-12T22:52:31.175Z,101952.59
2019-05-12T22:55:03.906Z,101952.06
2019-05-12T22:57:40.124Z,101946.41
2019-05-12T23:00:19.325Z,101943.99
2019-05-12T23:02:50.455Z,101948.56
2019-05-12T23:05:24.219Z,101955.84
2019-05-12T23:08:00.246Z,101948.84
2019-05-12T23:10:34.560Z,101953.13
2019-05-12T23:13:07.511Z,101952.09
2019-05-12T23:15:47.554Z,101950.74
2019-05-12T23:18:19.583Z,101948.50
2019-05-12T23:20:54.546Z,101951.13
2019-05-12T23:23:27.590Z,101950.84
2019-05-12T23:26:02.034Z,101950.12
2019-05-12T23:28:40.487Z,101952.55
2019-05-12T23:31:10.097Z,101956.39
2019-05-12T23:33:44.106Z,101960.70
2019-05-12T23:36:19.613Z,101961.27
2019-05-12T23:39:00.157Z,101962.89
2019-05-12T23:41:26.729Z,101962.09
2019-05-12T23:43:59.809Z,101955.64
2019-05-12T23:46:34.317Z,101953.47
2019-05-12T23:49:08.140Z,101960.47
2019-05-12T23:51:43.756Z,101964.75
2019-05-12T23:54:16.580Z,101957.49
2019-05-12T23:56:49.701Z,101956.94
2019-05-12T23:59:24.066Z,101965.01
